createdAt,value
2018-10-21T00:00:02.701Z,0
2018-10-21T00:00:43.134Z,0
2018-10-21T00:01:23.567Z,0
2018-10-21T00:02:03.960Z,0
2018-10-21T00:02:44.399Z,0
2018-10-21T00:03:24.811Z,0
2018-10-21T00:04:05.258Z,0
2018-10-21T00:04:45.633Z,0
2018-10-21T00:05:26.054Z,0
2018-10-21T00:06:06.485Z,0
2018-10-21T00:06:46.933Z,0
2018-10-21T00:07:27.370Z,0
2018-10-21T00:08:07.782Z,0
2018-10-21T00:08:48.153Z,0
2018-10-21T00:09:28.570Z,0
2018-10-21T00:10:09.019Z,0
2018-10-21T00:10:49.571Z,0
2018-10-21T00:11:29.933Z,0
2018-10-21T00:12:10.348Z,0
2018-10-21T00:12:50.790Z,0
2018-10-21T00:13:31.149Z,0
2018-10-21T00:14:11.568Z,0
2018-10-21T00:14:52.022Z,0
2018-10-21T00:15:32.623Z,0
2018-10-21T00:16:12.890Z,0
2018-10-21T00:16:53.278Z,0
2018-10-21T00:17:33.656Z,0
2018-10-21T00:18:14.064Z,0
2018-10-21T00:18:56.041Z,0
2018-10-21T00:19:36.443Z,0
2018-10-21T00:20:16.812Z,0
2018-10-21T00:20:57.277Z,0
2018-10-21T00:21:37.671Z,0
2018-10-21T00:22:18.072Z,0
2018-10-21T00:23:00.202Z,0
2018-10-21T00:23:40.655Z,0
2018-10-21T00:24:21.002Z,0
2018-10-21T00:25:01.453Z,0
2018-10-21T00:25:44.656Z,0
2018-10-21T00:26:24.985Z,0
2018-10-21T00:27:05.473Z,0
2018-10-21T00:27:45.742Z,0
2018-10-21T00:28:26.243Z,0
2018-10-21T00:29:06.608Z,0
2018-10-21T00:29:46.981Z,0
2018-10-21T00:30:27.414Z,0
2018-10-21T00:31:07.784Z,0
2018-10-21T00:31:48.188Z,0
2018-10-21T00:32:28.598Z,0
2018-10-21T00:33:09.039Z,0
2018-10-21T00:33:49.399Z,0
2018-10-21T00:34:29.870Z,0
2018-10-21T00:35:10.196Z,0
2018-10-21T00:35:50.579Z,0
2018-10-21T00:36:31.003Z,0
2018-10-21T00:37:11.471Z,0
2018-10-21T00:37:51.857Z,0
2018-10-21T00:38:32.227Z,0
2018-10-21T00:39:12.664Z,0
2018-10-21T00:39:53.044Z,0
2018-10-21T00:40:33.486Z,0
2018-10-21T00:41:13.911Z,0
2018-10-21T00:41:54.283Z,0
2018-10-21T00:42:34.709Z,0
2018-10-21T00:43:15.222Z,0
2018-10-21T00:43:55.524Z,0
2018-10-21T00:44:35.897Z,0
2018-10-21T00:45:16.450Z,0
2018-10-21T00:45:56.754Z,0
2018-10-21T00:46:37.091Z,0
2018-10-21T00:47:17.484Z,0
2018-10-21T00:47:57.923Z,0
2018-10-21T00:48:38.339Z,0
2018-10-21T00:49:18.726Z,0
2018-10-21T00:49:59.135Z,0
2018-10-21T00:50:39.531Z,0
2018-10-21T00:51:19.959Z,0
2018-10-21T00:52:00.381Z,0
2018-10-21T00:52:40.757Z,0
2018-10-21T00:53:21.218Z,0
2018-10-21T00:54:01.626Z,0
2018-10-21T00:54:42.031Z,0
2018-10-21T00:55:22.439Z,0
2018-10-21T00:56:02.852Z,0
2018-10-21T00:56:43.279Z,0
2018-10-21T00:57:23.645Z,0
2018-10-21T00:58:04.092Z,0
2018-10-21T00:58:44.484Z,0
2018-10-21T00:59:24.909Z,0
2018-10-21T01:00:05.377Z,0
2018-10-21T01:00:45.771Z,0
2018-10-21T01:01:26.205Z,0
2018-10-21T01:02:06.619Z,0
2018-10-21T01:02:47.087Z,0
2018-10-21T01:03:27.458Z,0
2018-10-21T01:04:07.920Z,0
2018-10-21T01:04:48.240Z,0
2018-10-21T01:05:28.660Z,0
2018-10-21T01:06:09.088Z,0
2018-10-21T01:06:49.554Z,0
2018-10-21T01:07:29.910Z,0
2018-10-21T01:08:10.298Z,0
2018-10-21T01:08:50.736Z,0
2018-10-21T01:09:31.163Z,0
2018-10-21T01:10:11.582Z,0
2018-10-21T01:10:51.943Z,0
2018-10-21T01:11:32.466Z,0
2018-10-21T01:12:13.439Z,0
2018-10-21T01:12:53.900Z,0
2018-10-21T01:13:34.210Z,0
2018-10-21T01:14:14.620Z,0
2018-10-21T01:14:55.076Z,0
2018-10-21T01:15:35.415Z,0
2018-10-21T01:16:15.795Z,0
2018-10-21T01:16:56.245Z,0
2018-10-21T01:17:36.656Z,0
2018-10-21T01:18:17.076Z,0
2018-10-21T01:18:57.500Z,0
2018-10-21T01:19:37.840Z,0
2018-10-21T01:20:18.249Z,0
2018-10-21T01:20:58.697Z,0
2018-10-21T01:21:39.053Z,0
2018-10-21T01:22:19.498Z,0
2018-10-21T01:22:59.940Z,0
2018-10-21T01:23:40.305Z,0
2018-10-21T01:24:20.671Z,0
2018-10-21T01:25:01.113Z,0
2018-10-21T01:25:41.497Z,0
2018-10-21T01:26:21.903Z,0
2018-10-21T01:27:02.348Z,0
2018-10-21T01:27:42.754Z,0
2018-10-21T01:28:23.187Z,0
2018-10-21T01:29:03.630Z,0
2018-10-21T01:29:43.997Z,0
2018-10-21T01:30:24.398Z,0
2018-10-21T01:31:04.830Z,0
2018-10-21T01:31:45.319Z,0
2018-10-21T01:32:25.796Z,0
2018-10-21T01:33:06.188Z,0
2018-10-21T01:33:46.593Z,0
2018-10-21T01:34:26.987Z,0
2018-10-21T01:35:07.395Z,0
2018-10-21T01:35:47.810Z,0
2018-10-21T01:36:28.376Z,0
2018-10-21T01:37:08.708Z,0
2018-10-21T01:37:49.169Z,0
2018-10-21T01:38:29.453Z,0
2018-10-21T01:39:09.886Z,0
2018-10-21T01:39:50.272Z,0
2018-10-21T01:40:30.709Z,0
2018-10-21T01:41:11.079Z,0
2018-10-21T01:41:51.533Z,0
2018-10-21T01:42:31.852Z,0
2018-10-21T01:43:15.275Z,0
2018-10-21T01:43:55.593Z,0
2018-10-21T01:44:36.005Z,0
2018-10-21T01:45:16.534Z,0
2018-10-21T01:45:56.880Z,0
2018-10-21T01:46:37.294Z,0
2018-10-21T01:47:17.625Z,0
2018-10-21T01:47:58.076Z,0
2018-10-21T01:48:38.394Z,0
2018-10-21T01:49:18.868Z,0
2018-10-21T01:49:59.240Z,0
2018-10-21T01:50:39.698Z,0
2018-10-21T01:51:20.140Z,0
2018-10-21T01:52:00.529Z,0
2018-10-21T01:52:40.922Z,0
2018-10-21T01:53:21.340Z,0
2018-10-21T01:54:01.747Z,0
2018-10-21T01:54:42.157Z,0
2018-10-21T01:55:22.588Z,0
2018-10-21T01:56:02.938Z,0
2018-10-21T01:56:43.356Z,0
2018-10-21T01:57:23.763Z,0
2018-10-21T01:58:04.186Z,0
2018-10-21T01:58:44.590Z,0
2018-10-21T01:59:25.001Z,0
2018-10-21T02:00:05.360Z,0
2018-10-21T02:00:45.833Z,0
2018-10-21T02:01:26.213Z,0
2018-10-21T02:02:06.577Z,0
2018-10-21T02:02:47.054Z,0
2018-10-21T02:03:27.463Z,0
2018-10-21T02:04:07.883Z,0
2018-10-21T02:04:48.281Z,0
2018-10-21T02:05:28.647Z,0
2018-10-21T02:06:09.047Z,0
2018-10-21T02:06:49.459Z,0
2018-10-21T02:07:29.891Z,0
2018-10-21T02:08:10.303Z,0
2018-10-21T02:08:50.735Z,0
2018-10-21T02:09:31.130Z,0
2018-10-21T02:10:11.536Z,0
2018-10-21T02:10:51.973Z,0
2018-10-21T02:11:32.407Z,0
2018-10-21T02:14:02.312Z,0
2018-10-21T02:14:42.998Z,0
2018-10-21T02:15:24.481Z,0
2018-10-21T02:19:35.515Z,0
2018-10-21T02:20:15.870Z,0
2018-10-21T02:20:56.307Z,0
2018-10-21T02:21:36.644Z,0
2018-10-21T02:22:17.035Z,0
2018-10-21T02:22:57.480Z,0
2018-10-21T02:23:37.849Z,0
2018-10-21T02:24:18.270Z,0
2018-10-21T02:24:58.651Z,0
2018-10-21T02:25:39.086Z,0
2018-10-21T02:26:19.484Z,0
2018-10-21T02:26:59.855Z,0
2018-10-21T02:27:40.265Z,0
2018-10-21T02:28:20.752Z,0
2018-10-21T02:29:01.135Z,0
2018-10-21T02:29:41.503Z,0
2018-10-21T02:30:21.909Z,0
2018-10-21T02:31:02.343Z,0
2018-10-21T02:31:42.731Z,0
2018-10-21T02:32:23.149Z,0
2018-10-21T02:33:03.720Z,0
2018-10-21T02:33:44.109Z,0
2018-10-21T02:34:24.338Z,0
2018-10-21T02:35:04.680Z,0
2018-10-21T02:35:45.087Z,0
2018-10-21T02:36:25.502Z,0
2018-10-21T02:37:05.928Z,0
2018-10-21T02:37:46.304Z,0
2018-10-21T02:38:26.755Z,0
2018-10-21T02:39:07.317Z,0
2018-10-21T02:39:47.581Z,0
2018-10-21T02:40:28.030Z,0
2018-10-21T02:41:08.486Z,0
2018-10-21T02:41:48.856Z,0
2018-10-21T02:42:29.286Z,0
2018-10-21T02:43:09.609Z,0
2018-10-21T02:43:49.986Z,0
2018-10-21T02:44:30.434Z,0
2018-10-21T02:45:10.958Z,0
2018-10-21T02:45:51.317Z,0
2018-10-21T02:46:32.236Z,0
2018-10-21T02:47:12.612Z,0
2018-10-21T02:47:53.071Z,0
2018-10-21T02:48:33.441Z,0
2018-10-21T02:49:13.900Z,0
2018-10-21T02:49:54.242Z,0
2018-10-21T02:50:34.660Z,0
2018-10-21T02:51:15.140Z,0
2018-10-21T02:51:58.404Z,0
2018-10-21T02:52:38.823Z,0
2018-10-21T02:53:19.266Z,0
2018-10-21T02:53:59.721Z,0
2018-10-21T02:54:40.095Z,0
2018-10-21T02:55:20.529Z,0
2018-10-21T02:56:00.979Z,0
2018-10-21T02:56:41.367Z,0
2018-10-21T02:57:22.089Z,0
2018-10-21T02:58:02.230Z,0
2018-10-21T02:58:42.600Z,0
2018-10-21T02:59:23.014Z,0
2018-10-21T03:00:03.439Z,0
2018-10-21T03:00:43.912Z,0
2018-10-21T03:01:24.314Z,0
2018-10-21T03:02:04.707Z,0
2018-10-21T03:02:45.080Z,0
2018-10-21T03:03:25.495Z,0
2018-10-21T03:04:05.905Z,0
2018-10-21T03:04:46.368Z,0
2018-10-21T03:05:26.755Z,0
2018-10-21T03:06:07.127Z,0
2018-10-21T03:06:47.519Z,0
2018-10-21T03:07:27.964Z,0
2018-10-21T03:08:08.332Z,0
2018-10-21T03:08:48.745Z,0
2018-10-21T03:09:29.257Z,0
2018-10-21T03:10:09.666Z,0
2018-10-21T03:10:50.049Z,0
2018-10-21T03:11:30.457Z,0
2018-10-21T03:12:10.896Z,0
2018-10-21T03:12:51.310Z,0
2018-10-21T03:13:31.754Z,0
2018-10-21T03:14:12.133Z,0
2018-10-21T03:14:52.574Z,0
2018-10-21T03:15:32.936Z,0
2018-10-21T03:16:13.312Z,0
2018-10-21T03:16:53.706Z,0
2018-10-21T03:17:34.161Z,0
2018-10-21T03:18:17.448Z,0
2018-10-21T03:18:57.821Z,0
2018-10-21T03:19:38.336Z,0
2018-10-21T03:20:18.730Z,0
2018-10-21T03:20:59.201Z,0
2018-10-21T03:21:39.537Z,0
2018-10-21T03:22:19.964Z,0
2018-10-21T03:23:00.388Z,0
2018-10-21T03:23:40.748Z,0
2018-10-21T03:24:21.156Z,0
2018-10-21T03:25:01.538Z,0
2018-10-21T03:25:41.937Z,0
2018-10-21T03:26:22.296Z,0
2018-10-21T03:27:02.705Z,0
2018-10-21T03:27:43.137Z,0
2018-10-21T03:28:23.531Z,0
2018-10-21T03:29:03.919Z,0
2018-10-21T03:29:44.343Z,0
2018-10-21T03:30:24.728Z,0
2018-10-21T03:31:05.126Z,0
2018-10-21T03:31:45.501Z,0
2018-10-21T03:32:25.965Z,0
2018-10-21T03:33:06.475Z,0
2018-10-21T03:33:46.866Z,0
2018-10-21T03:34:27.270Z,0
2018-10-21T03:35:07.657Z,0
2018-10-21T03:35:48.117Z,0
2018-10-21T03:36:28.506Z,0
2018-10-21T03:37:08.932Z,0
2018-10-21T03:37:49.337Z,0
2018-10-21T03:38:29.700Z,0
2018-10-21T03:39:10.106Z,0
2018-10-21T03:39:50.476Z,0
2018-10-21T03:40:30.925Z,0
2018-10-21T03:41:11.344Z,0
2018-10-21T03:41:51.718Z,0
2018-10-21T03:42:32.212Z,0
2018-10-21T03:43:12.623Z,0
2018-10-21T03:43:53.013Z,0
2018-10-21T03:44:33.315Z,0
2018-10-21T03:45:13.798Z,0
2018-10-21T03:45:54.245Z,0
2018-10-21T03:46:34.591Z,0
2018-10-21T03:47:14.944Z,0
2018-10-21T03:47:55.421Z,0
2018-10-21T03:48:35.887Z,0
2018-10-21T03:49:16.294Z,0
2018-10-21T03:49:56.670Z,0
2018-10-21T03:50:37.039Z,0
2018-10-21T03:51:17.517Z,0
2018-10-21T03:51:57.880Z,0
2018-10-21T03:52:38.297Z,0
2018-10-21T03:53:18.693Z,0
2018-10-21T03:53:59.106Z,0
2018-10-21T03:54:39.517Z,0
2018-10-21T03:55:20.009Z,0
2018-10-21T03:56:00.364Z,0
2018-10-21T03:56:40.751Z,0
2018-10-21T03:57:21.139Z,0
2018-10-21T03:58:01.605Z,0
2018-10-21T03:58:41.932Z,0
2018-10-21T03:59:22.296Z,0
2018-10-21T04:00:02.719Z,0
2018-10-21T04:00:43.240Z,0
2018-10-21T04:01:23.533Z,0
2018-10-21T04:02:03.989Z,0
2018-10-21T04:02:44.361Z,0
2018-10-21T04:03:25.275Z,0
2018-10-21T04:04:05.210Z,0
2018-10-21T04:04:45.665Z,0
2018-10-21T04:05:26.054Z,0
2018-10-21T04:06:07.599Z,0
2018-10-21T04:06:47.944Z,0
2018-10-21T04:07:28.433Z,0
2018-10-21T04:08:08.796Z,0
2018-10-21T04:08:49.184Z,0
2018-10-21T04:09:29.591Z,0
2018-10-21T04:10:10.103Z,0
2018-10-21T04:10:50.432Z,0
2018-10-21T04:11:30.850Z,0
2018-10-21T04:12:11.195Z,0
2018-10-21T04:12:51.576Z,0
2018-10-21T04:13:32.019Z,0
2018-10-21T04:14:12.422Z,0
2018-10-21T04:14:52.868Z,0
2018-10-21T04:15:33.291Z,0
2018-10-21T04:16:13.807Z,0
2018-10-21T04:16:54.082Z,0
2018-10-21T04:17:34.437Z,0
2018-10-21T04:18:14.983Z,0
2018-10-21T04:18:55.242Z,0
2018-10-21T04:19:35.733Z,0
2018-10-21T04:20:16.066Z,0
2018-10-21T04:20:56.525Z,0
2018-10-21T04:21:36.883Z,0
2018-10-21T04:22:17.347Z,0
2018-10-21T04:22:57.680Z,0
2018-10-21T04:23:38.072Z,0
2018-10-21T04:24:18.507Z,0
2018-10-21T04:24:58.915Z,0
2018-10-21T04:25:39.328Z,0
2018-10-21T04:26:19.731Z,0
2018-10-21T04:27:00.161Z,0
2018-10-21T04:27:40.562Z,0
2018-10-21T05:08:30.508Z,0
2018-10-21T05:09:19.336Z,0
2018-10-21T05:10:06.898Z,0
2018-10-21T05:10:49.983Z,0
2018-10-21T05:11:30.504Z,0
2018-10-21T05:12:10.852Z,0
2018-10-21T05:12:51.327Z,0
2018-10-21T05:13:31.806Z,0
2018-10-21T05:14:12.140Z,0
2018-10-21T05:14:52.581Z,0
2018-10-21T05:15:33.017Z,0
2018-10-21T05:16:13.495Z,0
2018-10-21T05:16:53.782Z,0
2018-10-21T05:17:34.198Z,0
2018-10-21T05:18:14.591Z,0
2018-10-21T05:18:56.649Z,0
2018-10-21T05:19:37.067Z,0
2018-10-21T05:20:17.481Z,0
2018-10-21T05:20:57.856Z,0
2018-10-21T05:21:38.308Z,0
2018-10-21T05:22:18.774Z,0
2018-10-21T05:22:59.187Z,0
2018-10-21T05:23:39.544Z,0
2018-10-21T05:24:19.943Z,0
2018-10-21T05:25:00.378Z,0
2018-10-21T05:25:40.772Z,0
2018-10-21T05:26:21.134Z,0
2018-10-21T05:27:01.593Z,0
2018-10-21T05:27:41.980Z,0
2018-10-21T05:28:22.444Z,0
2018-10-21T05:29:02.838Z,0
2018-10-21T05:29:43.259Z,0
2018-10-21T05:30:23.675Z,0
2018-10-21T05:31:04.071Z,0
2018-10-21T05:31:44.428Z,0
2018-10-21T05:32:26.797Z,0
2018-10-21T05:33:07.249Z,0
2018-10-21T05:33:47.674Z,0
2018-10-21T05:34:28.011Z,0
2018-10-21T05:35:08.448Z,0
2018-10-21T05:35:48.886Z,0
2018-10-21T05:36:29.275Z,0
2018-10-21T05:37:09.671Z,0
2018-10-21T05:37:50.154Z,0
2018-10-21T05:38:30.505Z,0
2018-10-21T05:39:10.880Z,0
2018-10-21T05:39:51.333Z,0
2018-10-21T05:40:31.763Z,0
2018-10-21T05:41:12.146Z,0
2018-10-21T05:41:52.533Z,0
2018-10-21T05:42:33.090Z,0
2018-10-21T05:43:13.480Z,0
2018-10-21T05:43:53.883Z,0
2018-10-21T05:44:34.248Z,0
2018-10-21T05:45:14.652Z,0
2018-10-21T05:45:55.159Z,0
2018-10-21T05:46:35.509Z,0
2018-10-21T05:47:15.937Z,0
2018-10-21T05:47:56.359Z,0
2018-10-21T05:48:36.750Z,0
2018-10-21T05:49:17.155Z,0
2018-10-21T05:49:57.613Z,0
2018-10-21T05:50:38.000Z,0
2018-10-21T05:51:18.399Z,0
2018-10-21T05:51:58.787Z,0
2018-10-21T05:52:39.312Z,0
2018-10-21T05:53:19.683Z,0
2018-10-21T05:54:00.102Z,0
2018-10-21T05:54:40.478Z,0
2018-10-21T05:55:20.881Z,0
2018-10-21T05:56:01.310Z,0
2018-10-21T05:56:41.731Z,0
2018-10-21T05:57:22.086Z,0
2018-10-21T05:58:02.679Z,0
2018-10-21T05:58:44.735Z,0
2018-10-21T05:59:25.087Z,0
2018-10-21T06:00:05.537Z,0
2018-10-21T06:00:45.935Z,0
2018-10-21T06:01:26.382Z,0
2018-10-21T06:02:06.782Z,0
2018-10-21T06:02:47.228Z,0
2018-10-21T06:03:27.629Z,0
2018-10-21T06:04:08.132Z,0
2018-10-21T06:04:50.143Z,0
2018-10-21T06:05:30.557Z,0
2018-10-21T06:06:10.974Z,0
2018-10-21T06:06:51.444Z,0
2018-10-21T06:07:31.862Z,0
2018-10-21T06:08:12.231Z,0
2018-10-21T06:08:52.687Z,0
2018-10-21T06:09:33.101Z,0
2018-10-21T06:10:17.304Z,0
2018-10-21T06:10:57.665Z,0
2018-10-21T06:11:38.108Z,5
2018-10-21T06:12:18.524Z,5
2018-10-21T06:12:59.416Z,5
2018-10-21T06:13:39.865Z,5
2018-10-21T06:14:20.271Z,5
2018-10-21T06:15:01.417Z,5
2018-10-21T06:15:41.693Z,5
2018-10-21T06:16:21.953Z,5
2018-10-21T06:17:03.347Z,5
2018-10-21T06:17:43.719Z,5
2018-10-21T06:18:25.025Z,10
2018-10-21T06:19:05.449Z,10
2018-10-21T06:19:45.830Z,10
2018-10-21T06:20:26.221Z,10
2018-10-21T06:21:06.688Z,10
2018-10-21T06:21:47.057Z,10
2018-10-21T06:22:27.494Z,10
2018-10-21T06:23:07.852Z,10
2018-10-21T06:23:48.397Z,15
2018-10-21T06:24:28.635Z,15
2018-10-21T06:25:09.261Z,15
2018-10-21T06:25:49.528Z,20
2018-10-21T06:26:29.976Z,20
2018-10-21T06:27:10.404Z,20
2018-10-21T06:27:50.769Z,20
2018-10-21T06:28:31.183Z,20
2018-10-21T06:29:11.550Z,20
2018-10-21T06:29:52.014Z,20
2018-10-21T06:30:32.360Z,20
2018-10-21T06:34:43.478Z,25
2018-10-21T06:35:27.780Z,30
2018-10-21T06:36:08.061Z,30
2018-10-21T06:36:48.527Z,30
2018-10-21T06:39:09.792Z,30
2018-10-21T06:39:52.451Z,30
2018-10-21T06:40:32.755Z,30
2018-10-21T06:41:13.184Z,30
2018-10-21T06:41:53.575Z,35
2018-10-21T06:42:34.018Z,35
2018-10-21T06:43:14.433Z,35
2018-10-21T06:43:54.887Z,40
2018-10-21T06:44:35.246Z,40
2018-10-21T06:45:15.737Z,40
2018-10-21T06:45:59.429Z,45
2018-10-21T06:48:31.366Z,45
2018-10-21T06:49:12.529Z,45
2018-10-21T06:51:50.606Z,50
2018-10-21T06:52:33.723Z,55
2018-10-21T06:53:17.091Z,55
2018-10-21T06:56:30.645Z,60
2018-10-21T06:57:11.241Z,60
2018-10-21T06:57:51.457Z,60
2018-10-21T06:58:31.760Z,65
2018-10-21T06:59:12.150Z,65
2018-10-21T07:01:39.889Z,65
2018-10-21T07:02:20.308Z,65
2018-10-21T07:03:13.563Z,60
2018-10-21T07:03:54.040Z,60
2018-10-21T07:04:34.382Z,60
2018-10-21T07:05:14.817Z,60
2018-10-21T07:05:55.220Z,60
2018-10-21T07:06:35.602Z,60
2018-10-21T07:07:20.364Z,60
2018-10-21T07:08:00.820Z,60
2018-10-21T07:08:41.226Z,60
2018-10-21T07:09:21.615Z,60
2018-10-21T07:10:02.034Z,55
2018-10-21T07:10:42.415Z,55
2018-10-21T07:11:24.067Z,60
2018-10-21T07:12:04.500Z,60
2018-10-21T07:12:44.906Z,60
2018-10-21T07:13:25.327Z,60
2018-10-21T07:14:05.735Z,60
2018-10-21T07:14:46.903Z,60
2018-10-21T07:15:27.397Z,60
2018-10-21T07:16:07.771Z,60
2018-10-21T07:16:48.657Z,60
2018-10-21T07:17:30.747Z,60
2018-10-21T07:18:28.049Z,60
2018-10-21T07:19:08.695Z,60
2018-10-21T07:19:49.132Z,60
2018-10-21T07:20:29.513Z,60
2018-10-21T07:21:09.912Z,60
2018-10-21T07:23:52.360Z,60
2018-10-21T07:24:30.904Z,60
2018-10-21T07:25:11.327Z,60
2018-10-21T07:25:51.747Z,60
2018-10-21T07:26:39.990Z,60
2018-10-21T07:27:18.872Z,60
2018-10-21T07:27:59.232Z,60
2018-10-21T07:28:39.700Z,60
2018-10-21T07:29:20.051Z,60
2018-10-21T07:30:00.477Z,60
2018-10-21T07:30:40.914Z,60
2018-10-21T07:31:21.301Z,60
2018-10-21T07:32:01.798Z,60
2018-10-21T07:32:42.198Z,60
2018-10-21T07:33:22.607Z,60
2018-10-21T07:34:04.987Z,60
2018-10-21T07:34:45.173Z,60
2018-10-21T07:35:25.612Z,60
2018-10-21T07:36:06.021Z,60
2018-10-21T07:36:51.625Z,60
2018-10-21T07:40:40.216Z,60
2018-10-21T07:41:20.001Z,60
2018-10-21T07:42:00.734Z,60
2018-10-21T07:42:43.788Z,60
2018-10-21T07:43:24.127Z,60
2018-10-21T07:44:04.823Z,60
2018-10-21T07:46:32.633Z,60
2018-10-21T07:47:13.060Z,60
2018-10-21T07:47:53.509Z,60
2018-10-21T07:48:35.033Z,60
2018-10-21T07:49:15.654Z,60
2018-10-21T07:49:56.052Z,60
2018-10-21T07:50:36.465Z,60
2018-10-21T07:51:16.918Z,60
2018-10-21T07:51:57.294Z,60
2018-10-21T07:52:39.006Z,60
2018-10-21T07:53:19.431Z,60
2018-10-21T07:55:52.285Z,60
2018-10-21T07:56:32.745Z,60
2018-10-21T07:57:14.194Z,60
2018-10-21T07:57:54.787Z,60
2018-10-21T07:58:35.146Z,60
2018-10-21T08:02:08.035Z,60
2018-10-21T08:02:51.494Z,60
2018-10-21T08:03:31.930Z,60
2018-10-21T08:04:12.461Z,60
2018-10-21T08:04:53.407Z,60
2018-10-21T08:05:34.014Z,60
2018-10-21T08:06:14.571Z,60
2018-10-21T08:06:54.980Z,60
2018-10-21T08:07:36.079Z,60
2018-10-21T08:08:17.827Z,60
2018-10-21T08:08:57.898Z,60
2018-10-21T08:09:38.433Z,60
2018-10-21T08:10:18.874Z,60
2018-10-21T08:10:59.225Z,60
2018-10-21T08:11:43.478Z,60
2018-10-21T08:12:23.907Z,60
2018-10-21T08:13:04.284Z,60
2018-10-21T08:13:44.768Z,60
2018-10-21T08:14:27.032Z,60
2018-10-21T08:15:07.415Z,60
2018-10-21T08:15:51.387Z,60
2018-10-21T08:16:31.802Z,60
2018-10-21T08:17:12.247Z,60
2018-10-21T08:17:52.721Z,60
2018-10-21T08:18:33.186Z,60
2018-10-21T08:19:13.573Z,60
2018-10-21T08:19:53.957Z,60
2018-10-21T08:20:34.555Z,60
2018-10-21T08:21:15.551Z,60
2018-10-21T08:21:57.430Z,60
2018-10-21T08:22:37.416Z,60
2018-10-21T08:23:17.896Z,60
2018-10-21T08:23:59.436Z,60
2018-10-21T08:24:39.703Z,60
2018-10-21T08:25:20.026Z,60
2018-10-21T08:26:01.070Z,60
2018-10-21T08:26:41.543Z,60
2018-10-21T08:27:22.078Z,60
2018-10-21T08:28:02.350Z,55
2018-10-21T08:28:43.642Z,55
2018-10-21T08:29:24.198Z,55
2018-10-21T08:30:04.644Z,55
2018-10-21T08:30:44.991Z,55
2018-10-21T08:31:25.289Z,55
2018-10-21T08:32:05.893Z,55
2018-10-21T08:32:46.119Z,55
2018-10-21T08:33:27.970Z,55
2018-10-21T08:34:08.251Z,55
2018-10-21T08:34:49.024Z,55
2018-10-21T08:35:29.662Z,55
2018-10-21T08:36:10.734Z,55
2018-10-21T08:36:50.740Z,55
2018-10-21T08:37:33.350Z,55
2018-10-21T08:38:13.480Z,55
2018-10-21T08:38:53.894Z,55
2018-10-21T08:39:34.253Z,55
2018-10-21T08:40:15.306Z,55
2018-10-21T08:40:55.565Z,55
2018-10-21T08:41:36.047Z,55
2018-10-21T08:42:16.500Z,55
2018-10-21T08:42:57.397Z,55
2018-10-21T08:43:37.808Z,55
2018-10-21T08:44:18.706Z,55
2018-10-21T08:45:03.525Z,60
2018-10-21T08:47:20.302Z,60
2018-10-21T08:48:03.300Z,60
2018-10-21T08:48:43.890Z,60
2018-10-21T08:49:24.338Z,60
2018-10-21T08:50:04.999Z,60
2018-10-21T08:50:45.303Z,60
2018-10-21T08:51:25.821Z,60
2018-10-21T08:52:06.467Z,60
2018-10-21T08:52:46.864Z,60
2018-10-21T08:53:27.371Z,60
2018-10-21T08:54:07.807Z,60
2018-10-21T08:54:48.248Z,60
2018-10-21T08:55:28.722Z,60
2018-10-21T08:56:09.191Z,60
2018-10-21T08:56:49.678Z,60
2018-10-21T09:02:20.947Z,55
2018-10-21T09:03:01.320Z,55
2018-10-21T09:03:41.735Z,55
2018-10-21T09:04:22.155Z,55
2018-10-21T09:05:02.581Z,55
2018-10-21T09:05:42.978Z,55
2018-10-21T09:06:23.539Z,55
2018-10-21T09:07:03.940Z,55
2018-10-21T09:07:44.218Z,55
2018-10-21T09:08:24.707Z,55
2018-10-21T09:09:05.537Z,55
2018-10-21T09:09:45.800Z,55
2018-10-21T09:10:26.250Z,55
2018-10-21T09:11:08.087Z,55
2018-10-21T09:11:48.485Z,55
2018-10-21T09:12:28.969Z,55
2018-10-21T09:13:09.384Z,55
2018-10-21T09:13:49.796Z,55
2018-10-21T09:14:30.233Z,55
2018-10-21T09:15:12.190Z,55
2018-10-21T09:15:52.553Z,55
2018-10-21T09:16:33.095Z,55
2018-10-21T09:17:13.445Z,55
2018-10-21T09:17:53.832Z,55
2018-10-21T09:18:35.084Z,55
2018-10-21T09:19:19.371Z,55
2018-10-21T09:20:00.266Z,55
2018-10-21T09:20:40.685Z,55
2018-10-21T09:21:21.200Z,55
2018-10-21T09:22:03.142Z,55
2018-10-21T09:22:43.686Z,55
2018-10-21T09:23:24.180Z,55
2018-10-21T09:24:07.439Z,55
2018-10-21T09:24:47.716Z,55
2018-10-21T09:25:28.222Z,55
2018-10-21T09:26:08.579Z,55
2018-10-21T09:28:25.220Z,55
2018-10-21T09:29:05.680Z,55
2018-10-21T09:31:37.406Z,55
2018-10-21T09:32:17.663Z,55
2018-10-21T09:32:58.114Z,55
2018-10-21T09:33:39.899Z,55
2018-10-21T09:34:20.627Z,55
2018-10-21T09:35:01.173Z,55
2018-10-21T09:35:42.091Z,55
2018-10-21T09:36:23.044Z,55
2018-10-21T09:37:03.863Z,55
2018-10-21T09:37:44.712Z,55
2018-10-21T09:38:24.909Z,55
2018-10-21T09:39:05.305Z,55
2018-10-21T09:39:45.934Z,55
2018-10-21T09:40:26.163Z,55
2018-10-21T09:41:06.713Z,55
2018-10-21T09:41:47.154Z,55
2018-10-21T09:42:27.468Z,55
2018-10-21T09:43:11.017Z,55
2018-10-21T09:43:51.215Z,55
2018-10-21T09:44:31.764Z,55
2018-10-21T09:45:12.125Z,55
2018-10-21T09:45:52.564Z,55
2018-10-21T09:46:33.105Z,55
2018-10-21T09:47:13.614Z,55
2018-10-21T09:47:53.938Z,55
2018-10-21T09:48:36.271Z,55
2018-10-21T09:49:16.883Z,55
2018-10-21T09:49:57.236Z,55
2018-10-21T09:50:37.747Z,55
2018-10-21T09:51:18.976Z,55
2018-10-21T09:51:59.163Z,55
2018-10-21T09:52:39.557Z,55
2018-10-21T09:53:19.964Z,55
2018-10-21T09:54:00.381Z,55
2018-10-21T09:54:41.091Z,55
2018-10-21T09:55:21.650Z,55
2018-10-21T09:56:01.837Z,55
2018-10-21T09:56:42.331Z,55
2018-10-21T09:57:22.739Z,55
2018-10-21T09:58:03.835Z,55
2018-10-21T09:58:43.906Z,55
2018-10-21T09:59:24.205Z,55
2018-10-21T10:00:04.574Z,55
2018-10-21T10:00:45.743Z,55
2018-10-21T10:01:26.118Z,55
2018-10-21T10:02:06.594Z,55
2018-10-21T10:02:47.015Z,55
2018-10-21T10:03:27.410Z,55
2018-10-21T10:04:07.863Z,55
2018-10-21T10:04:48.259Z,55
2018-10-21T10:05:28.751Z,55
2018-10-21T10:06:09.160Z,55
2018-10-21T10:06:49.678Z,55
2018-10-21T10:07:30.000Z,55
2018-10-21T10:08:10.431Z,55
2018-10-21T10:08:50.880Z,55
2018-10-21T10:09:31.305Z,55
2018-10-21T10:10:12.045Z,55
2018-10-21T10:10:52.245Z,55
2018-10-21T10:11:32.932Z,55
2018-10-21T10:12:13.328Z,55
2018-10-21T10:12:53.741Z,55
2018-10-21T10:13:34.311Z,55
2018-10-21T10:14:14.775Z,55
2018-10-21T10:14:55.201Z,55
2018-10-21T10:15:35.665Z,55
2018-10-21T10:16:16.040Z,55
2018-10-21T10:16:56.516Z,55
2018-10-21T10:17:36.971Z,55
2018-10-21T10:18:17.441Z,55
2018-10-21T10:18:57.772Z,55
2018-10-21T10:19:38.199Z,55
2018-10-21T10:20:18.610Z,55
2018-10-21T10:20:58.996Z,55
2018-10-21T10:21:39.418Z,55
2018-10-21T10:22:19.858Z,55
2018-10-21T10:23:00.279Z,55
2018-10-21T10:23:40.737Z,55
2018-10-21T10:24:21.312Z,55
2018-10-21T10:25:01.897Z,55
2018-10-21T10:25:42.969Z,55
2018-10-21T10:26:26.525Z,55
2018-10-21T10:27:06.084Z,55
2018-10-21T10:27:46.220Z,55
2018-10-21T10:28:26.790Z,55
2018-10-21T10:29:12.346Z,55
2018-10-21T11:07:27.714Z,50
2018-10-21T11:08:08.091Z,50
2018-10-21T11:08:48.474Z,50
2018-10-21T11:09:28.899Z,50
2018-10-21T11:12:03.976Z,50
2018-10-21T11:12:56.364Z,50
2018-10-21T11:13:48.478Z,50
2018-10-21T11:14:41.007Z,50
2018-10-21T11:15:32.885Z,50
2018-10-21T11:16:26.985Z,50
2018-10-21T11:17:20.456Z,50
2018-10-21T11:18:14.491Z,50
2018-10-21T11:21:08.815Z,50
2018-10-21T11:24:14.638Z,50
2018-10-21T11:25:07.207Z,50
2018-10-21T11:25:59.861Z,50
2018-10-21T11:26:58.719Z,50
2018-10-21T11:31:32.951Z,50
2018-10-21T11:32:13.223Z,50
2018-10-21T11:32:54.275Z,50
2018-10-21T11:33:51.668Z,50
2018-10-21T11:34:32.110Z,50
2018-10-21T11:35:22.739Z,50
2018-10-21T11:36:02.050Z,50
2018-10-21T11:37:01.365Z,50
2018-10-21T11:37:41.966Z,50
2018-10-21T11:38:24.743Z,50
2018-10-21T11:39:06.539Z,50
2018-10-21T11:39:46.885Z,50
2018-10-21T11:40:27.940Z,50
2018-10-21T11:41:08.279Z,50
2018-10-21T11:41:48.666Z,50
2018-10-21T11:42:29.983Z,50
2018-10-21T11:46:23.805Z,50
2018-10-21T11:47:04.079Z,50
2018-10-21T11:47:44.756Z,50
2018-10-21T11:48:25.372Z,50
2018-10-21T11:49:05.783Z,50
2018-10-21T11:49:46.233Z,50
2018-10-21T11:50:26.637Z,50
2018-10-21T11:51:07.047Z,50
2018-10-21T11:51:47.865Z,50
2018-10-21T11:52:28.968Z,50
2018-10-21T11:53:11.691Z,50
2018-10-21T11:53:52.102Z,50
2018-10-21T11:54:33.152Z,50
2018-10-21T11:55:13.941Z,50
2018-10-21T11:55:54.591Z,50
2018-10-21T11:56:35.151Z,50
2018-10-21T11:57:15.622Z,50
2018-10-21T11:57:56.013Z,50
2018-10-21T11:58:36.445Z,45
2018-10-21T11:59:17.328Z,50
2018-10-21T11:59:57.686Z,50
2018-10-21T12:00:37.999Z,50
2018-10-21T12:01:18.625Z,45
2018-10-21T12:01:58.909Z,45
2018-10-21T12:02:39.369Z,45
2018-10-21T12:03:20.485Z,45
2018-10-21T12:04:00.816Z,45
2018-10-21T12:04:41.825Z,45
2018-10-21T12:05:22.355Z,45
2018-10-21T12:06:02.748Z,45